Terminal Aerodrome Forecast
Issued by NWS Mt. Holly, NJ

Home | Current Version | Previous Version | Text Only | Print | Product List | Glossary On
Versions: 1 2 3 4 5 6 7 8 9 10 11 12 13 14 15 16 17 18 19 20 21 22
000
FTAK31 PANC 260520
TAFABE
TAF
PABE 260520Z 2606/2706 29010KT P6SM BKN050 OVC060
     FM261500 16015KT P6SM FEW010 BKN030
     FM262000 16018G28KT P6SM BKN015 OVC025=

USA.gov is the U.S. government's official web portal to all federal, state and local government web resources and services.